createdAt,value
2023-02-22T00:09:21.672Z,85.71
2023-02-22T00:11:48.922Z,85.03
2023-02-22T00:14:15.596Z,84.61
2023-02-22T00:16:42.389Z,84.63
2023-02-22T00:19:09.009Z,83.74
2023-02-22T00:21:35.663Z,83.16
2023-02-22T00:24:02.317Z,83.29
2023-02-22T00:26:33.255Z,84.20
2023-02-22T00:28:59.889Z,84.38
2023-02-22T00:31:26.588Z,85.11
2023-02-22T00:33:53.253Z,84.99
2023-02-22T00:36:20.170Z,84.74
2023-02-22T00:38:46.899Z,84.85
2023-02-22T00:41:15.189Z,84.72
2023-02-22T00:43:42.423Z,85.10
2023-02-22T00:46:09.126Z,85.47
2023-02-22T00:48:35.862Z,85.05
2023-02-22T00:51:02.473Z,84.20
2023-02-22T00:53:30.106Z,84.36
2023-02-22T00:55:56.724Z,84.07
2023-02-22T00:58:23.777Z,84.11
2023-02-22T01:00:50.957Z,83.66
2023-02-22T01:03:19.832Z,84.75
2023-02-22T01:05:47.545Z,84.92
2023-02-22T01:08:15.887Z,84.85
2023-02-22T01:10:43.228Z,85.34
2023-02-22T01:13:10.372Z,85.23
2023-02-22T01:15:39.130Z,85.01
2023-02-22T01:18:06.991Z,85.26
2023-02-22T01:20:33.915Z,84.85
2023-02-22T01:23:02.165Z,84.91
2023-02-22T01:25:31.103Z,83.90
2023-02-22T01:27:59.905Z,83.66
2023-02-22T01:30:32.601Z,83.79
2023-02-22T01:33:00.911Z,83.39
2023-02-22T01:35:30.883Z,82.99
2023-02-22T01:37:58.516Z,82.24
2023-02-22T01:40:31.471Z,82.02
2023-02-22T01:43:01.184Z,81.75
2023-02-22T01:45:30.888Z,81.55
2023-02-22T01:48:02.640Z,81.29
2023-02-22T01:50:32.195Z,80.78
2023-02-22T01:52:59.172Z,80.58
2023-02-22T01:55:26.022Z,80.44
2023-02-22T01:57:52.633Z,80.53
2023-02-22T02:00:20.847Z,80.44
2023-02-22T02:03:02.302Z,80.47
2023-02-22T02:05:31.429Z,80.24
2023-02-22T02:08:01.747Z,80.59
2023-02-22T02:10:28.563Z,80.73
2023-02-22T02:12:57.827Z,81.15
2023-02-22T02:15:32.713Z,81.43
2023-02-22T02:18:02.269Z,81.96
2023-02-22T02:20:48.268Z,81.59
2023-02-22T02:23:30.153Z,81.76
2023-02-22T02:26:34.261Z,81.86
2023-02-22T02:29:31.194Z,82.04
2023-02-22T02:32:10.787Z,81.59
2023-02-22T02:34:58.876Z,81.79
2023-02-22T02:37:44.211Z,81.42
2023-02-22T02:40:26.091Z,81.91
2023-02-22T02:43:06.268Z,82.46
2023-02-22T02:45:47.326Z,82.40
2023-02-22T02:48:17.653Z,82.69
2023-02-22T02:50:47.919Z,82.76
2023-02-22T02:53:20.789Z,82.56
2023-02-22T02:55:47.706Z,82.01
2023-02-22T02:58:20.418Z,81.72
2023-02-22T03:00:49.453Z,82.22
2023-02-22T03:03:18.838Z,83.70
2023-02-22T03:05:55.830Z,84.62
2023-02-22T03:08:31.418Z,84.16
2023-02-22T03:11:06.739Z,84.12
2023-02-22T03:13:48.778Z,84.06
2023-02-22T03:16:20.696Z,82.92
2023-02-22T03:18:58.850Z,83.29
2023-02-22T03:21:29.512Z,85.35
2023-02-22T03:24:26.463Z,87.87
2023-02-22T03:27:11.948Z,89.68
2023-02-22T03:29:45.338Z,90.05
2023-02-22T03:32:20.992Z,91.51
2023-02-22T03:34:55.455Z,91.97
2023-02-22T03:37:30.489Z,92.02
2023-02-22T03:40:00.712Z,92.42
2023-02-22T03:42:36.737Z,92.76
2023-02-22T03:45:08.610Z,93.34
2023-02-22T03:47:43.536Z,93.13
2023-02-22T03:50:18.732Z,94.11
2023-02-22T03:52:46.393Z,94.20
2023-02-22T03:55:19.112Z,93.67
2023-02-22T03:57:54.461Z,92.70
2023-02-22T04:00:24.819Z,91.76
2023-02-22T04:02:51.786Z,92.27
2023-02-22T04:05:20.450Z,93.65
2023-02-22T04:07:47.651Z,93.47
2023-02-22T04:10:16.286Z,93.39
2023-02-22T04:12:43.856Z,94.28
2023-02-22T04:15:14.131Z,94.42
2023-02-22T04:17:41.066Z,93.53
2023-02-22T04:20:10.588Z,95.18
2023-02-22T04:22:44.384Z,96.62
2023-02-22T04:25:12.282Z,98.30
2023-02-22T04:27:39.337Z,98.51
2023-02-22T04:30:06.618Z,99.33
2023-02-22T04:32:35.161Z,98.51
2023-02-22T04:35:02.414Z,98.69
2023-02-22T04:37:29.749Z,98.88
2023-02-22T04:39:56.943Z,99.30
2023-02-22T04:42:23.610Z,99.15
2023-02-22T04:44:50.461Z,99.39
2023-02-22T04:47:17.115Z,97.64
2023-02-22T04:49:43.816Z,97.74
2023-02-22T04:52:10.390Z,96.05
2023-02-22T04:54:38.677Z,95.42
2023-02-22T04:57:06.263Z,94.27
2023-02-22T04:59:33.896Z,92.85
2023-02-22T05:02:01.578Z,91.89
2023-02-22T05:04:28.640Z,91.10
2023-02-22T05:06:55.226Z,90.11
2023-02-22T05:09:22.082Z,88.64
2023-02-22T05:11:48.704Z,88.47
2023-02-22T05:14:15.414Z,88.16
2023-02-22T05:16:42.391Z,88.71
2023-02-22T05:19:09.556Z,88.63
2023-02-22T05:21:36.180Z,88.58
2023-02-22T05:24:03.003Z,87.73
2023-02-22T05:26:29.585Z,87.81
2023-02-22T05:28:56.277Z,87.86
2023-02-22T05:31:23.055Z,87.33
2023-02-22T05:33:49.891Z,87.24
2023-02-22T05:36:16.496Z,86.47
2023-02-22T05:38:43.226Z,87.60
2023-02-22T05:41:11.317Z,87.20
2023-02-22T05:43:39.025Z,87.07
2023-02-22T05:46:05.736Z,86.87
2023-02-22T05:48:32.513Z,87.58
2023-02-22T05:50:59.226Z,87.79
2023-02-22T05:53:26.576Z,87.68
2023-02-22T05:55:53.203Z,88.70
2023-02-22T05:58:19.837Z,89.25
2023-02-22T06:00:46.458Z,89.20
2023-02-22T06:03:13.142Z,89.61
2023-02-22T06:05:41.125Z,89.09
2023-02-22T06:08:08.878Z,88.93
2023-02-22T06:10:36.037Z,88.32
2023-02-22T06:13:03.975Z,88.13
2023-02-22T06:15:30.705Z,87.84
2023-02-22T06:17:57.994Z,87.78
2023-02-22T06:20:26.367Z,87.81
2023-02-22T06:22:55.668Z,87.18
2023-02-22T06:25:26.553Z,87.67
2023-02-22T06:27:53.427Z,86.59
2023-02-22T06:30:23.653Z,86.67
2023-02-22T06:32:50.624Z,87.35
2023-02-22T06:35:17.349Z,87.09
2023-02-22T06:37:44.165Z,87.00
2023-02-22T06:40:12.509Z,86.76
2023-02-22T06:42:39.416Z,87.48
2023-02-22T06:45:06.922Z,87.01
2023-02-22T06:47:33.686Z,87.04
2023-02-22T06:50:00.300Z,87.27
2023-02-22T06:52:26.966Z,86.87
2023-02-22T06:54:53.619Z,86.39
2023-02-22T06:57:20.285Z,85.40
2023-02-22T06:59:46.896Z,85.21
2023-02-22T07:02:14.209Z,85.19
2023-02-22T07:04:43.247Z,86.14
2023-02-22T07:07:10.608Z,86.41
2023-02-22T07:09:37.341Z,87.00
2023-02-22T07:12:04.261Z,86.63
2023-02-22T07:14:30.933Z,85.52
2023-02-22T07:16:57.581Z,84.54
2023-02-22T07:19:24.170Z,84.85
2023-02-22T07:21:51.020Z,84.98
2023-02-22T07:24:17.617Z,85.14
2023-02-22T07:26:44.274Z,85.42
2023-02-22T07:29:11.047Z,85.46
2023-02-22T07:31:38.484Z,85.13
2023-02-22T07:34:05.273Z,86.40
2023-02-22T07:36:31.956Z,86.43
2023-02-22T07:38:58.522Z,87.54
2023-02-22T07:41:25.432Z,88.09
2023-02-22T07:43:52.063Z,89.96
2023-02-22T07:46:18.697Z,89.78
2023-02-22T07:48:45.282Z,89.44
2023-02-22T07:51:15.810Z,89.89
2023-02-22T07:53:42.688Z,89.17
2023-02-22T07:56:09.266Z,90.09
2023-02-22T07:58:36.039Z,89.31
2023-02-22T08:01:04.824Z,89.32
2023-02-22T08:03:35.064Z,88.19
2023-02-22T08:06:02.570Z,88.27
2023-02-22T08:08:30.367Z,87.22
2023-02-22T08:10:57.847Z,88.90
2023-02-22T08:13:25.592Z,89.35
2023-02-22T08:15:55.792Z,89.22
2023-02-22T08:18:23.901Z,89.50
2023-02-22T08:20:52.022Z,89.95
2023-02-22T08:23:21.813Z,89.56
2023-02-22T08:25:48.437Z,90.37
2023-02-22T08:28:17.350Z,90.41
2023-02-22T08:30:43.973Z,90.20
2023-02-22T08:33:13.343Z,89.40
2023-02-22T08:35:40.218Z,89.51
2023-02-22T08:38:08.444Z,89.88
2023-02-22T08:40:36.698Z,90.62
2023-02-22T08:43:04.039Z,91.65
2023-02-22T08:45:30.774Z,90.63
2023-02-22T08:47:58.746Z,90.52
2023-02-22T08:50:28.715Z,92.89
2023-02-22T08:52:57.635Z,91.95
2023-02-22T08:55:26.941Z,91.92
2023-02-22T08:57:53.675Z,92.74
2023-02-22T09:00:21.712Z,91.68
2023-02-22T09:02:48.379Z,91.64
2023-02-22T09:05:15.035Z,91.60
2023-02-22T09:07:42.076Z,91.71
2023-02-22T09:10:13.530Z,90.83
2023-02-22T09:12:40.191Z,91.33
2023-02-22T09:15:07.352Z,89.90
2023-02-22T09:17:34.086Z,91.13
2023-02-22T09:20:00.705Z,90.67
2023-02-22T09:22:27.371Z,91.04
2023-02-22T09:24:53.965Z,89.56
2023-02-22T09:27:20.722Z,90.72
2023-02-22T09:29:50.314Z,91.38
2023-02-22T09:32:17.072Z,91.62
2023-02-22T09:34:44.500Z,92.34
2023-02-22T09:37:12.307Z,90.83
2023-02-22T09:39:39.064Z,89.98
2023-02-22T09:42:36.738Z,90.41
2023-02-22T09:45:13.389Z,88.59
2023-02-22T09:47:43.645Z,86.59
2023-02-22T09:50:14.926Z,87.01
2023-02-22T09:53:20.619Z,88.71
2023-02-22T09:55:51.618Z,88.15
2023-02-22T09:58:24.109Z,88.46
2023-02-22T10:00:57.077Z,87.70
2023-02-22T10:03:36.806Z,88.37
2023-02-22T10:06:13.434Z,88.82
2023-02-22T10:08:41.563Z,89.09
2023-02-22T10:11:45.475Z,90.68
2023-02-22T10:14:53.693Z,90.49
2023-02-22T10:17:38.823Z,89.06
2023-02-22T10:20:14.754Z,85.73
2023-02-22T10:23:07.568Z,85.80
2023-02-22T10:25:37.839Z,86.33
2023-02-22T10:28:21.505Z,88.33
2023-02-22T10:31:01.779Z,88.33
2023-02-22T10:33:36.800Z,88.89
2023-02-22T10:36:03.788Z,88.49
2023-02-22T10:38:33.578Z,88.49
2023-02-22T10:41:23.756Z,88.49
2023-02-22T10:43:50.440Z,85.90
2023-02-22T10:46:21.006Z,84.27
2023-02-22T10:48:53.602Z,84.48
2023-02-22T10:51:20.976Z,86.29
2023-02-22T10:54:14.380Z,87.73
2023-02-22T10:56:52.287Z,86.89
2023-02-22T10:59:27.878Z,83.95
2023-02-22T11:01:54.704Z,83.42
2023-02-22T11:04:22.757Z,84.92
2023-02-22T11:06:57.308Z,84.35
2023-02-22T11:09:24.115Z,83.33
2023-02-22T11:12:08.759Z,82.28
2023-02-22T11:14:35.466Z,83.20
2023-02-22T11:17:07.670Z,84.07
2023-02-22T11:19:34.919Z,82.80
2023-02-22T11:22:19.637Z,83.12
2023-02-22T11:24:57.675Z,82.40
2023-02-22T11:27:34.833Z,82.37
2023-02-22T11:30:16.883Z,82.27
2023-02-22T11:32:49.339Z,81.41
2023-02-22T11:35:27.953Z,80.94
2023-02-22T11:38:20.053Z,78.45
2023-02-22T11:40:47.978Z,78.88
2023-02-22T11:43:17.769Z,76.85
2023-02-22T11:45:59.041Z,78.25
2023-02-22T11:48:30.490Z,76.58
2023-02-22T11:51:09.793Z,76.04
2023-02-22T11:53:57.785Z,75.71
2023-02-22T11:56:38.383Z,75.30
2023-02-22T11:59:15.507Z,73.44
2023-02-22T12:02:16.271Z,73.93
2023-02-22T12:04:53.859Z,73.99
2023-02-22T12:07:29.870Z,74.00
2023-02-22T12:10:04.730Z,75.21
2023-02-22T12:12:43.529Z,72.30
2023-02-22T12:15:37.852Z,71.72
2023-02-22T12:18:07.633Z,72.57
2023-02-22T12:20:45.713Z,72.66
2023-02-22T12:23:12.477Z,73.38
2023-02-22T12:25:46.981Z,73.42
2023-02-22T12:28:25.005Z,72.36
2023-02-22T12:31:04.831Z,71.32
2023-02-22T12:33:43.361Z,71.00
2023-02-22T12:36:15.730Z,71.67
2023-02-22T12:38:48.390Z,70.43
2023-02-22T12:41:25.433Z,68.35
2023-02-22T12:44:19.710Z,67.45
2023-02-22T12:46:52.893Z,68.83
2023-02-22T12:49:30.628Z,68.50
2023-02-22T12:52:34.983Z,69.26
2023-02-22T12:55:11.184Z,68.21
2023-02-22T12:58:00.960Z,68.03
2023-02-22T13:00:39.547Z,65.94
2023-02-22T13:03:15.102Z,67.37
2023-02-22T13:05:41.831Z,67.33
2023-02-22T13:08:21.710Z,67.59
2023-02-22T13:11:27.120Z,66.53
2023-02-22T13:14:12.592Z,64.91
2023-02-22T13:17:10.465Z,65.88
2023-02-22T13:19:59.226Z,64.84
2023-02-22T13:22:44.734Z,62.87
2023-02-22T13:25:28.402Z,63.99
2023-02-22T13:28:13.216Z,64.59
2023-02-22T13:30:44.319Z,65.10
2023-02-22T13:33:34.482Z,63.27
2023-02-22T13:36:31.824Z,59.82
2023-02-22T13:39:27.748Z,62.28
2023-02-22T13:42:09.466Z,61.66
2023-02-22T13:45:00.794Z,59.97
2023-02-22T13:48:06.861Z,58.92
2023-02-22T13:50:48.821Z,58.47
2023-02-22T13:53:28.317Z,58.60
2023-02-22T13:55:59.529Z,60.82
2023-02-22T13:58:27.000Z,60.14
2023-02-22T14:00:59.858Z,58.97
2023-02-22T14:03:40.845Z,59.73
2023-02-22T14:06:10.782Z,61.06
2023-02-22T14:08:41.297Z,62.21
2023-02-22T14:11:15.173Z,60.64
2023-02-22T14:13:55.096Z,59.48
2023-02-22T14:16:26.034Z,57.03
2023-02-22T14:19:19.391Z,57.58
2023-02-22T14:22:01.566Z,58.12
2023-02-22T14:24:44.710Z,60.83
2023-02-22T14:27:12.757Z,61.24
2023-02-22T14:29:51.490Z,59.42
2023-02-22T14:32:18.401Z,60.19
2023-02-22T14:35:26.422Z,59.68
2023-02-22T14:37:59.187Z,62.37
2023-02-22T14:40:33.012Z,63.08
2023-02-22T14:43:20.842Z,63.50
2023-02-22T14:45:52.578Z,63.87
2023-02-22T14:48:25.267Z,64.22
2023-02-22T14:51:11.824Z,65.07
2023-02-22T14:54:02.546Z,65.63
2023-02-22T14:56:42.857Z,65.68
2023-02-22T14:59:15.827Z,66.30
2023-02-22T15:01:55.222Z,65.79
2023-02-22T15:04:28.549Z,67.58
2023-02-22T15:06:56.636Z,68.55
2023-02-22T15:09:29.687Z,67.98
2023-02-22T15:12:03.440Z,67.84
2023-02-22T15:14:33.354Z,66.94
2023-02-22T15:17:03.841Z,67.19
2023-02-22T15:19:33.706Z,65.17
2023-02-22T15:22:02.514Z,65.69
2023-02-22T15:24:34.463Z,65.16
2023-02-22T15:27:12.596Z,65.68
2023-02-22T15:29:41.817Z,66.41
2023-02-22T15:32:31.486Z,67.08
2023-02-22T15:35:17.219Z,66.76
2023-02-22T15:37:46.344Z,66.98
2023-02-22T15:40:19.268Z,67.17
2023-02-22T15:42:49.032Z,67.02
2023-02-22T15:45:18.859Z,67.67
2023-02-22T15:47:46.395Z,66.17
2023-02-22T15:50:17.915Z,66.39
2023-02-22T15:53:28.760Z,66.93
2023-02-22T15:55:59.910Z,67.61
2023-02-22T15:58:28.195Z,67.74
2023-02-22T16:01:02.601Z,68.00
2023-02-22T16:03:36.986Z,67.69
2023-02-22T16:06:10.045Z,68.08
2023-02-22T16:08:54.386Z,67.87
2023-02-22T16:11:34.276Z,68.09
2023-02-22T16:14:24.376Z,68.27
2023-02-22T16:17:29.869Z,68.50
2023-02-22T16:20:01.451Z,68.63
2023-02-22T16:22:34.010Z,69.19
2023-02-22T16:25:18.971Z,69.25
2023-02-22T16:27:48.684Z,69.64
2023-02-22T16:30:24.314Z,69.92
2023-02-22T16:32:54.331Z,70.08
2023-02-22T16:35:21.592Z,70.67
2023-02-22T16:37:50.488Z,70.46
2023-02-22T16:40:24.417Z,70.08
2023-02-22T16:42:51.146Z,70.06
2023-02-22T16:45:20.295Z,70.66
2023-02-22T16:47:48.013Z,71.16
2023-02-22T16:50:14.837Z,71.92
2023-02-22T16:52:41.838Z,71.56
2023-02-22T16:55:14.564Z,71.46
2023-02-22T16:57:41.917Z,72.03
2023-02-22T17:00:15.967Z,71.58
2023-02-22T17:02:42.776Z,71.39
2023-02-22T17:05:14.476Z,70.09
2023-02-22T17:07:41.534Z,70.87
2023-02-22T17:10:15.362Z,70.42
2023-02-22T17:12:45.322Z,71.06
2023-02-22T17:15:28.134Z,70.83
2023-02-22T17:17:56.341Z,71.10
2023-02-22T17:20:23.820Z,70.83
2023-02-22T17:22:51.541Z,70.61
2023-02-22T17:25:23.031Z,71.01
2023-02-22T17:27:49.914Z,70.48
2023-02-22T17:30:17.777Z,70.82
2023-02-22T17:32:44.673Z,70.78
2023-02-22T17:35:11.420Z,70.84
2023-02-22T17:37:38.187Z,70.96
2023-02-22T17:40:05.142Z,70.86
2023-02-22T17:42:31.850Z,70.56
2023-02-22T17:44:58.499Z,70.46
2023-02-22T17:47:25.471Z,70.63
2023-02-22T17:49:52.249Z,70.49
2023-02-22T17:52:18.994Z,70.37
2023-02-22T17:54:45.615Z,70.15
2023-02-22T17:57:12.343Z,70.31
2023-02-22T17:59:41.277Z,70.19
2023-02-22T18:02:08.164Z,70.43
2023-02-22T18:04:34.784Z,70.84
2023-02-22T18:07:01.414Z,70.50
2023-02-22T18:09:28.209Z,70.57
2023-02-22T18:11:55.466Z,70.88
2023-02-22T18:14:22.066Z,70.81
2023-02-22T18:16:48.860Z,70.92
2023-02-22T18:19:15.420Z,70.61
2023-02-22T18:21:42.064Z,70.17
2023-02-22T18:24:08.714Z,70.06
2023-02-22T18:26:35.997Z,69.63
2023-02-22T18:29:02.607Z,70.40
2023-02-22T18:31:30.872Z,71.16
2023-02-22T18:33:57.627Z,71.43
2023-02-22T18:36:25.733Z,71.43
2023-02-22T18:38:54.035Z,71.29
2023-02-22T18:41:23.941Z,70.72
2023-02-22T18:43:50.872Z,70.23
2023-02-22T18:46:21.886Z,70.41
2023-02-22T18:48:58.574Z,70.11
2023-02-22T18:51:26.301Z,69.60
2023-02-22T18:53:55.345Z,69.82
2023-02-22T18:56:22.670Z,69.86
2023-02-22T18:58:58.503Z,69.47
2023-02-22T19:01:26.185Z,69.18
2023-02-22T19:03:53.893Z,69.48
2023-02-22T19:06:20.984Z,69.34
2023-02-22T19:08:48.106Z,69.37
2023-02-22T19:11:20.909Z,69.08
2023-02-22T19:13:49.664Z,69.06
2023-02-22T19:16:22.266Z,68.39
2023-02-22T19:18:50.456Z,67.89
2023-02-22T19:21:25.628Z,67.66
2023-02-22T19:23:52.408Z,68.24
2023-02-22T19:26:22.648Z,68.30
2023-02-22T19:28:51.834Z,68.25
2023-02-22T19:31:21.191Z,68.53
2023-02-22T19:33:49.527Z,68.36
2023-02-22T19:36:16.366Z,68.38
2023-02-22T19:38:46.260Z,68.64
2023-02-22T19:41:16.135Z,69.18
2023-02-22T19:43:50.872Z,69.09
2023-02-22T19:46:18.348Z,69.20
2023-02-22T19:48:45.264Z,69.25
2023-02-22T19:51:13.926Z,68.92
2023-02-22T19:53:43.156Z,68.87
2023-02-22T19:56:13.403Z,69.51
2023-02-22T19:58:43.620Z,69.23
2023-02-22T20:01:14.832Z,69.23
2023-02-22T20:03:41.969Z,68.86
2023-02-22T20:06:10.409Z,68.84
2023-02-22T20:08:38.793Z,68.55
2023-02-22T20:11:06.995Z,68.70
2023-02-22T20:13:33.768Z,68.81
2023-02-22T20:16:00.377Z,68.49
2023-02-22T20:18:27.096Z,68.40
2023-02-22T20:20:54.948Z,68.57
2023-02-22T20:23:21.737Z,68.93
2023-02-22T20:25:55.959Z,69.07
2023-02-22T20:28:23.844Z,68.92
2023-02-22T20:30:51.190Z,68.87
2023-02-22T20:33:19.432Z,68.79
2023-02-22T20:35:46.574Z,69.57
2023-02-22T20:38:14.321Z,69.65
2023-02-22T20:40:41.926Z,69.63
2023-02-22T20:43:08.924Z,69.99
2023-02-22T20:45:37.059Z,70.22
2023-02-22T20:48:03.916Z,70.41
2023-02-22T20:50:30.812Z,70.68
2023-02-22T20:52:57.456Z,70.62
2023-02-22T20:55:24.465Z,71.06
2023-02-22T20:57:51.512Z,70.88
2023-02-22T21:00:18.159Z,70.90
2023-02-22T21:02:45.039Z,71.05
2023-02-22T21:05:11.610Z,70.84
2023-02-22T21:07:38.948Z,70.54
2023-02-22T21:10:06.199Z,71.09
2023-02-22T21:12:34.139Z,70.70
2023-02-22T21:15:00.913Z,70.89
2023-02-22T21:17:28.035Z,71.04
2023-02-22T21:19:56.004Z,71.38
2023-02-22T21:22:23.213Z,71.14
2023-02-22T21:24:51.588Z,70.96
2023-02-22T21:27:18.235Z,71.08
2023-02-22T21:29:45.336Z,71.32
2023-02-22T21:32:12.494Z,71.45
2023-02-22T21:34:39.302Z,71.29
2023-02-22T21:37:07.667Z,71.29
2023-02-22T21:39:34.325Z,71.29
2023-02-22T21:42:01.097Z,70.88
2023-02-22T21:44:28.581Z,71.37
2023-02-22T21:46:56.361Z,72.24
2023-02-22T21:49:23.010Z,72.72
2023-02-22T21:51:51.362Z,72.94
2023-02-22T21:54:20.176Z,72.75
2023-02-22T21:56:47.246Z,72.87
2023-02-22T21:59:16.726Z,72.98
2023-02-22T22:01:45.933Z,73.02
2023-02-22T22:04:15.010Z,72.85
2023-02-22T22:06:41.777Z,73.26
2023-02-22T22:09:08.400Z,73.35
2023-02-22T22:11:35.096Z,73.06
2023-02-22T22:14:01.707Z,73.54
2023-02-22T22:16:29.709Z,72.80
2023-02-22T22:18:56.787Z,73.20
2023-02-22T22:21:24.470Z,73.41
2023-02-22T22:23:53.275Z,73.82
2023-02-22T22:26:23.068Z,73.68
2023-02-22T22:28:52.108Z,74.17
2023-02-22T22:31:21.187Z,74.17
2023-02-22T22:33:48.147Z,74.05
2023-02-22T22:36:16.684Z,74.25
2023-02-22T22:38:44.058Z,75.18
2023-02-22T22:41:11.148Z,74.38
2023-02-22T22:43:37.725Z,74.84
2023-02-22T22:46:06.227Z,74.79
2023-02-22T22:48:36.090Z,74.71
2023-02-22T22:51:06.874Z,74.56
2023-02-22T22:53:34.394Z,74.38
2023-02-22T22:56:02.548Z,74.41
2023-02-22T22:58:32.819Z,74.46
2023-02-22T23:52:47.261Z,75.88
2023-02-22T23:55:16.494Z,75.92
2023-02-22T23:57:43.380Z,75.63
